sensor_id;sensor_type;location;lat;lon;timestamp;P1;durP1;ratioP1;P2;durP2;ratioP2
52470;SDS011;38382;53.160;7.026;2022-10-16T00:01:22;8.73;;;2.50;;
52470;SDS011;38382;53.160;7.026;2022-10-16T00:03:50;8.27;;;2.30;;
52470;SDS011;38382;53.160;7.026;2022-10-16T00:06:17;5.22;;;2.30;;
52470;SDS011;38382;53.160;7.026;2022-10-16T00:08:44;5.95;;;2.25;;
52470;SDS011;38382;53.160;7.026;2022-10-16T00:11:11;5.22;;;2.08;;
52470;SDS011;38382;53.160;7.026;2022-10-16T00:13:42;9.25;;;2.33;;
52470;SDS011;38382;53.160;7.026;2022-10-16T00:16:09;8.35;;;2.60;;
52470;SDS011;38382;53.160;7.026;2022-10-16T00:18:36;6.22;;;2.30;;
52470;SDS011;38382;53.160;7.026;2022-10-16T00:21:09;6.28;;;2.30;;
52470;SDS011;38382;53.160;7.026;2022-10-16T00:23:37;5.70;;;2.35;;
52470;SDS011;38382;53.160;7.026;2022-10-16T00:26:05;8.35;;;2.20;;
52470;SDS011;38382;53.160;7.026;2022-10-16T00:28:34;7.95;;;2.42;;
52470;SDS011;38382;53.160;7.026;2022-10-16T00:31:04;6.65;;;2.40;;
52470;SDS011;38382;53.160;7.026;2022-10-16T00:33:33;6.97;;;2.20;;
52470;SDS011;38382;53.160;7.026;2022-10-16T00:36:00;3.88;;;2.10;;
52470;SDS011;38382;53.160;7.026;2022-10-16T00:38:26;8.00;;;2.40;;
52470;SDS011;38382;53.160;7.026;2022-10-16T00:40:51;7.05;;;2.50;;
52470;SDS011;38382;53.160;7.026;2022-10-16T00:46:03;9.38;;;2.60;;
52470;SDS011;38382;53.160;7.026;2022-10-16T00:48:33;7.35;;;2.33;;
52470;SDS011;38382;53.160;7.026;2022-10-16T00:50:59;9.48;;;2.60;;
52470;SDS011;38382;53.160;7.026;2022-10-16T00:53:25;9.45;;;2.63;;
52470;SDS011;38382;53.160;7.026;2022-10-16T00:55:52;4.70;;;2.47;;
52470;SDS011;38382;53.160;7.026;2022-10-16T00:58:18;6.65;;;2.40;;
52470;SDS011;38382;53.160;7.026;2022-10-16T01:00:44;5.90;;;2.22;;
52470;SDS011;38382;53.160;7.026;2022-10-16T01:03:32;6.55;;;2.35;;
52470;SDS011;38382;53.160;7.026;2022-10-16T01:06:19;8.60;;;2.60;;
52470;SDS011;38382;53.160;7.026;2022-10-16T01:14:53;7.55;;;2.20;;
52470;SDS011;38382;53.160;7.026;2022-10-16T01:17:21;7.05;;;2.80;;
52470;SDS011;38382;53.160;7.026;2022-10-16T01:20:02;5.35;;;2.50;;
52470;SDS011;38382;53.160;7.026;2022-10-16T01:22:39;8.70;;;2.50;;
52470;SDS011;38382;53.160;7.026;2022-10-16T01:28:22;5.50;;;2.38;;
52470;SDS011;38382;53.160;7.026;2022-10-16T01:30:53;4.65;;;2.22;;
52470;SDS011;38382;53.160;7.026;2022-10-16T01:33:24;6.78;;;2.25;;
52470;SDS011;38382;53.160;7.026;2022-10-16T01:36:03;5.63;;;2.22;;
52470;SDS011;38382;53.160;7.026;2022-10-16T01:38:36;4.75;;;2.03;;
52470;SDS011;38382;53.160;7.026;2022-10-16T01:41:11;5.70;;;2.10;;
52470;SDS011;38382;53.160;7.026;2022-10-16T01:43:48;6.78;;;2.45;;
52470;SDS011;38382;53.160;7.026;2022-10-16T01:46:21;5.72;;;2.42;;
52470;SDS011;38382;53.160;7.026;2022-10-16T01:48:48;6.97;;;2.25;;
52470;SDS011;38382;53.160;7.026;2022-10-16T01:51:16;5.95;;;2.38;;
52470;SDS011;38382;53.160;7.026;2022-10-16T01:53:46;6.40;;;2.30;;
52470;SDS011;38382;53.160;7.026;2022-10-16T01:56:16;6.73;;;2.23;;
52470;SDS011;38382;53.160;7.026;2022-10-16T01:58:52;8.23;;;2.38;;
52470;SDS011;38382;53.160;7.026;2022-10-16T02:01:24;10.65;;;2.53;;
52470;SDS011;38382;53.160;7.026;2022-10-16T02:03:54;5.85;;;2.42;;
52470;SDS011;38382;53.160;7.026;2022-10-16T02:06:24;9.90;;;2.60;;
52470;SDS011;38382;53.160;7.026;2022-10-16T02:08:50;5.78;;;2.25;;
52470;SDS011;38382;53.160;7.026;2022-10-16T02:11:16;8.02;;;2.58;;
52470;SDS011;38382;53.160;7.026;2022-10-16T02:13:46;5.10;;;2.25;;
52470;SDS011;38382;53.160;7.026;2022-10-16T02:16:16;6.22;;;2.20;;
52470;SDS011;38382;53.160;7.026;2022-10-16T02:18:42;5.05;;;2.50;;
52470;SDS011;38382;53.160;7.026;2022-10-16T02:26:35;11.18;;;2.60;;
52470;SDS011;38382;53.160;7.026;2022-10-16T02:29:08;6.88;;;2.40;;
52470;SDS011;38382;53.160;7.026;2022-10-16T02:31:38;6.00;;;2.50;;
52470;SDS011;38382;53.160;7.026;2022-10-16T02:34:09;5.78;;;2.53;;
52470;SDS011;38382;53.160;7.026;2022-10-16T02:36:37;4.88;;;2.63;;
52470;SDS011;38382;53.160;7.026;2022-10-16T02:39:04;5.45;;;2.90;;
52470;SDS011;38382;53.160;7.026;2022-10-16T02:41:30;4.90;;;2.60;;
52470;SDS011;38382;53.160;7.026;2022-10-16T02:43:56;8.82;;;3.13;;
52470;SDS011;38382;53.160;7.026;2022-10-16T02:46:22;6.35;;;2.65;;
52470;SDS011;38382;53.160;7.026;2022-10-16T02:48:48;5.90;;;2.25;;
52470;SDS011;38382;53.160;7.026;2022-10-16T02:51:13;4.75;;;2.47;;
52470;SDS011;38382;53.160;7.026;2022-10-16T02:53:39;7.55;;;2.47;;
52470;SDS011;38382;53.160;7.026;2022-10-16T02:56:05;5.15;;;2.33;;
52470;SDS011;38382;53.160;7.026;2022-10-16T02:58:31;5.53;;;2.72;;
52470;SDS011;38382;53.160;7.026;2022-10-16T03:00:57;5.90;;;2.53;;
52470;SDS011;38382;53.160;7.026;2022-10-16T03:03:22;8.52;;;2.83;;
52470;SDS011;38382;53.160;7.026;2022-10-16T03:05:48;5.65;;;2.40;;
52470;SDS011;38382;53.160;7.026;2022-10-16T03:08:14;7.05;;;2.67;;
52470;SDS011;38382;53.160;7.026;2022-10-16T03:10:39;9.18;;;2.80;;
52470;SDS011;38382;53.160;7.026;2022-10-16T03:13:05;6.22;;;2.58;;
52470;SDS011;38382;53.160;7.026;2022-10-16T03:15:31;6.13;;;2.58;;
52470;SDS011;38382;53.160;7.026;2022-10-16T03:17:57;3.92;;;2.50;;
52470;SDS011;38382;53.160;7.026;2022-10-16T03:20:24;4.00;;;2.35;;
52470;SDS011;38382;53.160;7.026;2022-10-16T03:22:50;5.05;;;2.40;;
52470;SDS011;38382;53.160;7.026;2022-10-16T03:25:16;6.45;;;2.45;;
52470;SDS011;38382;53.160;7.026;2022-10-16T03:27:42;7.60;;;2.60;;
52470;SDS011;38382;53.160;7.026;2022-10-16T03:30:07;9.45;;;2.60;;
52470;SDS011;38382;53.160;7.026;2022-10-16T03:32:34;5.28;;;2.45;;
52470;SDS011;38382;53.160;7.026;2022-10-16T03:34:59;4.93;;;2.50;;
52470;SDS011;38382;53.160;7.026;2022-10-16T03:37:25;4.95;;;2.47;;
52470;SDS011;38382;53.160;7.026;2022-10-16T03:39:51;7.70;;;2.60;;
52470;SDS011;38382;53.160;7.026;2022-10-16T03:42:17;5.38;;;2.30;;
52470;SDS011;38382;53.160;7.026;2022-10-16T03:44:43;7.57;;;2.70;;
52470;SDS011;38382;53.160;7.026;2022-10-16T03:47:08;8.95;;;2.60;;
52470;SDS011;38382;53.160;7.026;2022-10-16T03:49:34;6.40;;;2.50;;
52470;SDS011;38382;53.160;7.026;2022-10-16T03:52:00;5.32;;;2.30;;
52470;SDS011;38382;53.160;7.026;2022-10-16T03:54:25;3.78;;;2.30;;
52470;SDS011;38382;53.160;7.026;2022-10-16T03:56:51;4.80;;;2.40;;
52470;SDS011;38382;53.160;7.026;2022-10-16T03:59:17;4.28;;;2.30;;
52470;SDS011;38382;53.160;7.026;2022-10-16T04:01:42;6.15;;;2.53;;
52470;SDS011;38382;53.160;7.026;2022-10-16T04:04:08;7.00;;;2.40;;
52470;SDS011;38382;53.160;7.026;2022-10-16T04:06:34;5.40;;;2.33;;
52470;SDS011;38382;53.160;7.026;2022-10-16T04:09:00;4.32;;;2.50;;
52470;SDS011;38382;53.160;7.026;2022-10-16T04:11:25;6.93;;;2.60;;
52470;SDS011;38382;53.160;7.026;2022-10-16T04:13:51;4.80;;;2.13;;
52470;SDS011;38382;53.160;7.026;2022-10-16T04:16:17;6.22;;;2.47;;
52470;SDS011;38382;53.160;7.026;2022-10-16T04:18:42;5.60;;;2.50;;
52470;SDS011;38382;53.160;7.026;2022-10-16T04:21:08;5.88;;;2.50;;
52470;SDS011;38382;53.160;7.026;2022-10-16T04:23:34;5.97;;;2.80;;
52470;SDS011;38382;53.160;7.026;2022-10-16T04:25:59;4.57;;;2.28;;
52470;SDS011;38382;53.160;7.026;2022-10-16T04:28:25;5.25;;;2.40;;
52470;SDS011;38382;53.160;7.026;2022-10-16T04:30:51;6.47;;;2.65;;
52470;SDS011;38382;53.160;7.026;2022-10-16T04:33:17;4.97;;;2.22;;
52470;SDS011;38382;53.160;7.026;2022-10-16T04:35:43;4.32;;;2.42;;
52470;SDS011;38382;53.160;7.026;2022-10-16T04:38:09;7.05;;;2.30;;
52470;SDS011;38382;53.160;7.026;2022-10-16T04:40:35;11.02;;;2.50;;
52470;SDS011;38382;53.160;7.026;2022-10-16T04:43:04;5.82;;;2.38;;
52470;SDS011;38382;53.160;7.026;2022-10-16T04:45:31;6.55;;;2.40;;
52470;SDS011;38382;53.160;7.026;2022-10-16T04:47:57;6.05;;;2.45;;
52470;SDS011;38382;53.160;7.026;2022-10-16T04:50:23;5.78;;;2.33;;
52470;SDS011;38382;53.160;7.026;2022-10-16T04:52:49;6.03;;;2.45;;
52470;SDS011;38382;53.160;7.026;2022-10-16T04:55:15;6.80;;;2.40;;
52470;SDS011;38382;53.160;7.026;2022-10-16T04:57:40;7.25;;;2.60;;
52470;SDS011;38382;53.160;7.026;2022-10-16T05:00:06;4.97;;;2.45;;
52470;SDS011;38382;53.160;7.026;2022-10-16T05:02:33;7.95;;;2.40;;
52470;SDS011;38382;53.160;7.026;2022-10-16T05:04:59;6.38;;;2.80;;
52470;SDS011;38382;53.160;7.026;2022-10-16T05:07:24;4.65;;;2.55;;
52470;SDS011;38382;53.160;7.026;2022-10-16T05:09:50;6.85;;;2.63;;
52470;SDS011;38382;53.160;7.026;2022-10-16T05:12:16;5.35;;;2.55;;
52470;SDS011;38382;53.160;7.026;2022-10-16T05:14:42;4.03;;;2.20;;
52470;SDS011;38382;53.160;7.026;2022-10-16T05:17:07;5.03;;;2.22;;
52470;SDS011;38382;53.160;7.026;2022-10-16T05:19:33;4.45;;;1.95;;
52470;SDS011;38382;53.160;7.026;2022-10-16T05:21:59;4.38;;;2.05;;
52470;SDS011;38382;53.160;7.026;2022-10-16T05:24:25;6.25;;;2.30;;
52470;SDS011;38382;53.160;7.026;2022-10-16T05:26:51;4.45;;;2.40;;
52470;SDS011;38382;53.160;7.026;2022-10-16T05:29:17;5.47;;;2.42;;
52470;SDS011;38382;53.160;7.026;2022-10-16T05:31:43;6.43;;;2.58;;
52470;SDS011;38382;53.160;7.026;2022-10-16T05:34:08;6.85;;;2.45;;
52470;SDS011;38382;53.160;7.026;2022-10-16T05:36:34;4.95;;;2.60;;
52470;SDS011;38382;53.160;7.026;2022-10-16T05:39:00;6.05;;;2.78;;
52470;SDS011;38382;53.160;7.026;2022-10-16T05:41:25;8.10;;;3.00;;
52470;SDS011;38382;53.160;7.026;2022-10-16T05:43:51;7.07;;;2.45;;
52470;SDS011;38382;53.160;7.026;2022-10-16T05:46:18;6.05;;;2.80;;
52470;SDS011;38382;53.160;7.026;2022-10-16T05:48:44;7.95;;;2.60;;
52470;SDS011;38382;53.160;7.026;2022-10-16T05:51:10;4.30;;;2.50;;
52470;SDS011;38382;53.160;7.026;2022-10-16T05:53:38;4.60;;;2.42;;
52470;SDS011;38382;53.160;7.026;2022-10-16T05:56:04;5.15;;;2.45;;
52470;SDS011;38382;53.160;7.026;2022-10-16T05:58:32;6.43;;;3.13;;
52470;SDS011;38382;53.160;7.026;2022-10-16T06:01:01;6.45;;;2.70;;
52470;SDS011;38382;53.160;7.026;2022-10-16T06:03:29;8.32;;;2.70;;
52470;SDS011;38382;53.160;7.026;2022-10-16T06:05:55;4.95;;;2.33;;
52470;SDS011;38382;53.160;7.026;2022-10-16T06:08:21;5.88;;;2.72;;
52470;SDS011;38382;53.160;7.026;2022-10-16T06:10:48;5.55;;;2.95;;
52470;SDS011;38382;53.160;7.026;2022-10-16T06:13:24;4.80;;;2.53;;
52470;SDS011;38382;53.160;7.026;2022-10-16T06:15:50;9.05;;;3.17;;
52470;SDS011;38382;53.160;7.026;2022-10-16T06:18:16;3.75;;;2.58;;
52470;SDS011;38382;53.160;7.026;2022-10-16T06:20:42;4.70;;;2.60;;
52470;SDS011;38382;53.160;7.026;2022-10-16T06:23:07;5.90;;;2.55;;
52470;SDS011;38382;53.160;7.026;2022-10-16T06:25:33;9.80;;;2.90;;
52470;SDS011;38382;53.160;7.026;2022-10-16T06:27:59;6.10;;;3.08;;
52470;SDS011;38382;53.160;7.026;2022-10-16T06:30:24;4.82;;;2.80;;
52470;SDS011;38382;53.160;7.026;2022-10-16T06:32:50;6.53;;;2.80;;
52470;SDS011;38382;53.160;7.026;2022-10-16T06:35:16;5.00;;;2.90;;
52470;SDS011;38382;53.160;7.026;2022-10-16T06:37:41;5.60;;;2.97;;
52470;SDS011;38382;53.160;7.026;2022-10-16T06:40:07;5.07;;;2.88;;
52470;SDS011;38382;53.160;7.026;2022-10-16T06:42:33;6.30;;;3.10;;
52470;SDS011;38382;53.160;7.026;2022-10-16T06:44:59;6.07;;;2.90;;
52470;SDS011;38382;53.160;7.026;2022-10-16T06:47:24;8.55;;;3.13;;
52470;SDS011;38382;53.160;7.026;2022-10-16T06:49:50;5.05;;;2.67;;
52470;SDS011;38382;53.160;7.026;2022-10-16T06:52:16;7.78;;;2.90;;
52470;SDS011;38382;53.160;7.026;2022-10-16T06:54:42;6.93;;;2.88;;
52470;SDS011;38382;53.160;7.026;2022-10-16T06:57:07;8.25;;;2.83;;
52470;SDS011;38382;53.160;7.026;2022-10-16T06:59:33;5.50;;;3.03;;
52470;SDS011;38382;53.160;7.026;2022-10-16T07:01:59;6.60;;;2.90;;
52470;SDS011;38382;53.160;7.026;2022-10-16T07:04:24;6.00;;;2.90;;
52470;SDS011;38382;53.160;7.026;2022-10-16T07:06:50;8.25;;;3.17;;
52470;SDS011;38382;53.160;7.026;2022-10-16T07:09:16;7.20;;;2.90;;
52470;SDS011;38382;53.160;7.026;2022-10-16T07:11:42;7.18;;;2.83;;
52470;SDS011;38382;53.160;7.026;2022-10-16T07:14:18;3.97;;;2.40;;
52470;SDS011;38382;53.160;7.026;2022-10-16T07:16:45;4.95;;;2.30;;
52470;SDS011;38382;53.160;7.026;2022-10-16T07:19:12;6.03;;;2.63;;
52470;SDS011;38382;53.160;7.026;2022-10-16T07:21:40;5.15;;;2.63;;
52470;SDS011;38382;53.160;7.026;2022-10-16T07:24:10;6.25;;;2.53;;
52470;SDS011;38382;53.160;7.026;2022-10-16T07:26:38;6.53;;;2.70;;
52470;SDS011;38382;53.160;7.026;2022-10-16T07:29:05;5.93;;;2.50;;
52470;SDS011;38382;53.160;7.026;2022-10-16T07:31:36;7.05;;;2.60;;
52470;SDS011;38382;53.160;7.026;2022-10-16T07:34:02;8.02;;;2.60;;
52470;SDS011;38382;53.160;7.026;2022-10-16T07:36:28;5.80;;;2.50;;
52470;SDS011;38382;53.160;7.026;2022-10-16T07:38:54;4.50;;;2.47;;
52470;SDS011;38382;53.160;7.026;2022-10-16T07:41:20;5.45;;;2.40;;
52470;SDS011;38382;53.160;7.026;2022-10-16T07:43:47;4.47;;;2.30;;
52470;SDS011;38382;53.160;7.026;2022-10-16T07:46:15;8.45;;;2.60;;
52470;SDS011;38382;53.160;7.026;2022-10-16T07:48:41;4.80;;;2.45;;
52470;SDS011;38382;53.160;7.026;2022-10-16T07:51:10;7.88;;;2.33;;
52470;SDS011;38382;53.160;7.026;2022-10-16T07:53:37;4.72;;;2.33;;
52470;SDS011;38382;53.160;7.026;2022-10-16T07:56:04;7.30;;;2.78;;
52470;SDS011;38382;53.160;7.026;2022-10-16T07:58:31;4.38;;;2.38;;
52470;SDS011;38382;53.160;7.026;2022-10-16T08:00:58;8.75;;;2.35;;
52470;SDS011;38382;53.160;7.026;2022-10-16T08:03:24;5.43;;;2.20;;
52470;SDS011;38382;53.160;7.026;2022-10-16T08:05:51;5.80;;;2.60;;
52470;SDS011;38382;53.160;7.026;2022-10-16T08:08:17;7.93;;;2.55;;
52470;SDS011;38382;53.160;7.026;2022-10-16T08:10:44;5.35;;;2.33;;
52470;SDS011;38382;53.160;7.026;2022-10-16T08:13:10;4.82;;;2.10;;
52470;SDS011;38382;53.160;7.026;2022-10-16T08:15:35;6.30;;;2.30;;
52470;SDS011;38382;53.160;7.026;2022-10-16T08:18:02;7.15;;;2.30;;
52470;SDS011;38382;53.160;7.026;2022-10-16T08:20:30;8.57;;;2.47;;
52470;SDS011;38382;53.160;7.026;2022-10-16T08:22:57;7.97;;;2.28;;
52470;SDS011;38382;53.160;7.026;2022-10-16T08:25:24;6.00;;;2.03;;
52470;SDS011;38382;53.160;7.026;2022-10-16T08:27:50;4.50;;;2.05;;
52470;SDS011;38382;53.160;7.026;2022-10-16T08:30:17;5.53;;;2.40;;
52470;SDS011;38382;53.160;7.026;2022-10-16T08:32:44;7.82;;;2.42;;
52470;SDS011;38382;53.160;7.026;2022-10-16T08:35:10;4.82;;;2.00;;
52470;SDS011;38382;53.160;7.026;2022-10-16T08:37:37;8.57;;;2.85;;
52470;SDS011;38382;53.160;7.026;2022-10-16T08:40:04;6.95;;;2.13;;
52470;SDS011;38382;53.160;7.026;2022-10-16T08:48:09;6.45;;;2.38;;
52470;SDS011;38382;53.160;7.026;2022-10-16T08:50:42;5.90;;;2.30;;
52470;SDS011;38382;53.160;7.026;2022-10-16T08:53:31;4.72;;;2.05;;
52470;SDS011;38382;53.160;7.026;2022-10-16T08:55:58;5.20;;;2.17;;
52470;SDS011;38382;53.160;7.026;2022-10-16T08:58:28;5.57;;;2.28;;
52470;SDS011;38382;53.160;7.026;2022-10-16T09:01:00;5.28;;;2.20;;
52470;SDS011;38382;53.160;7.026;2022-10-16T09:03:48;5.30;;;2.30;;
52470;SDS011;38382;53.160;7.026;2022-10-16T09:09:18;4.70;;;1.88;;
52470;SDS011;38382;53.160;7.026;2022-10-16T09:12:17;3.63;;;1.95;;
52470;SDS011;38382;53.160;7.026;2022-10-16T09:22:51;4.03;;;1.83;;
52470;SDS011;38382;53.160;7.026;2022-10-16T09:25:25;5.03;;;1.70;;
52470;SDS011;38382;53.160;7.026;2022-10-16T09:27:52;5.93;;;1.98;;
52470;SDS011;38382;53.160;7.026;2022-10-16T09:30:19;5.57;;;1.77;;
52470;SDS011;38382;53.160;7.026;2022-10-16T09:32:47;6.55;;;1.95;;
52470;SDS011;38382;53.160;7.026;2022-10-16T09:35:20;3.65;;;1.80;;
52470;SDS011;38382;53.160;7.026;2022-10-16T09:38:30;8.73;;;2.00;;
52470;SDS011;38382;53.160;7.026;2022-10-16T09:40:57;11.23;;;2.08;;
52470;SDS011;38382;53.160;7.026;2022-10-16T09:43:31;7.53;;;1.92;;
52470;SDS011;38382;53.160;7.026;2022-10-16T09:48:49;6.10;;;1.85;;
52470;SDS011;38382;53.160;7.026;2022-10-16T09:51:18;9.43;;;2.00;;
52470;SDS011;38382;53.160;7.026;2022-10-16T09:54:02;5.65;;;1.70;;
52470;SDS011;38382;53.160;7.026;2022-10-16T09:56:37;6.53;;;1.95;;
52470;SDS011;38382;53.160;7.026;2022-10-16T09:59:25;6.32;;;1.92;;
52470;SDS011;38382;53.160;7.026;2022-10-16T10:01:56;5.07;;;1.67;;
52470;SDS011;38382;53.160;7.026;2022-10-16T10:04:36;8.77;;;1.90;;
52470;SDS011;38382;53.160;7.026;2022-10-16T10:07:18;6.03;;;1.88;;
52470;SDS011;38382;53.160;7.026;2022-10-16T10:09:50;8.95;;;1.90;;
52470;SDS011;38382;53.160;7.026;2022-10-16T10:12:23;4.95;;;1.77;;
52470;SDS011;38382;53.160;7.026;2022-10-16T10:14:56;9.55;;;2.10;;
52470;SDS011;38382;53.160;7.026;2022-10-16T10:17:29;9.48;;;2.13;;
52470;SDS011;38382;53.160;7.026;2022-10-16T10:19:56;12.02;;;2.72;;
52470;SDS011;38382;53.160;7.026;2022-10-16T10:22:26;10.77;;;2.30;;
52470;SDS011;38382;53.160;7.026;2022-10-16T10:24:55;8.02;;;2.22;;
52470;SDS011;38382;53.160;7.026;2022-10-16T10:27:21;6.70;;;2.00;;
52470;SDS011;38382;53.160;7.026;2022-10-16T10:32:48;6.82;;;1.83;;
52470;SDS011;38382;53.160;7.026;2022-10-16T10:35:43;7.90;;;2.22;;
52470;SDS011;38382;53.160;7.026;2022-10-16T10:38:27;9.95;;;2.17;;
52470;SDS011;38382;53.160;7.026;2022-10-16T10:41:08;8.43;;;1.92;;
52470;SDS011;38382;53.160;7.026;2022-10-16T10:49:31;8.82;;;2.63;;
52470;SDS011;38382;53.160;7.026;2022-10-16T10:54:37;9.55;;;2.33;;
52470;SDS011;38382;53.160;7.026;2022-10-16T11:00:14;7.82;;;2.10;;
52470;SDS011;38382;53.160;7.026;2022-10-16T11:05:50;10.73;;;2.63;;
52470;SDS011;38382;53.160;7.026;2022-10-16T11:08:37;7.70;;;1.88;;
52470;SDS011;38382;53.160;7.026;2022-10-16T11:11:20;10.18;;;2.20;;
52470;SDS011;38382;53.160;7.026;2022-10-16T11:16:29;8.85;;;2.20;;
52470;SDS011;38382;53.160;7.026;2022-10-16T11:22:15;10.13;;;1.92;;
52470;SDS011;38382;53.160;7.026;2022-10-16T11:24:58;8.68;;;2.17;;
52470;SDS011;38382;53.160;7.026;2022-10-16T11:27:38;8.98;;;2.20;;
52470;SDS011;38382;53.160;7.026;2022-10-16T11:30:06;8.00;;;1.80;;
52470;SDS011;38382;53.160;7.026;2022-10-16T11:35:51;12.88;;;2.45;;
52470;SDS011;38382;53.160;7.026;2022-10-16T11:38:27;9.27;;;1.97;;
52470;SDS011;38382;53.160;7.026;2022-10-16T11:40:54;12.57;;;2.70;;
52470;SDS011;38382;53.160;7.026;2022-10-16T11:43:29;10.95;;;2.40;;
52470;SDS011;38382;53.160;7.026;2022-10-16T11:46:07;8.13;;;2.70;;
52470;SDS011;38382;53.160;7.026;2022-10-16T11:48:43;8.32;;;1.98;;
52470;SDS011;38382;53.160;7.026;2022-10-16T11:56:26;10.70;;;2.40;;
52470;SDS011;38382;53.160;7.026;2022-10-16T11:59:01;8.20;;;2.20;;
52470;SDS011;38382;53.160;7.026;2022-10-16T12:01:33;11.25;;;2.20;;
52470;SDS011;38382;53.160;7.026;2022-10-16T12:09:39;9.55;;;2.25;;
52470;SDS011;38382;53.160;7.026;2022-10-16T12:15:18;9.10;;;2.00;;
52470;SDS011;38382;53.160;7.026;2022-10-16T12:17:51;9.48;;;2.00;;
52470;SDS011;38382;53.160;7.026;2022-10-16T12:20:36;9.07;;;1.90;;
52470;SDS011;38382;53.160;7.026;2022-10-16T12:23:06;8.85;;;2.00;;
52470;SDS011;38382;53.160;7.026;2022-10-16T12:25:44;11.00;;;2.28;;
52470;SDS011;38382;53.160;7.026;2022-10-16T12:28:31;8.38;;;1.92;;
52470;SDS011;38382;53.160;7.026;2022-10-16T12:30:59;6.95;;;2.15;;
52470;SDS011;38382;53.160;7.026;2022-10-16T12:35:58;8.50;;;2.13;;
52470;SDS011;38382;53.160;7.026;2022-10-16T12:38:28;7.30;;;2.20;;
52470;SDS011;38382;53.160;7.026;2022-10-16T12:41:05;11.25;;;2.30;;
52470;SDS011;38382;53.160;7.026;2022-10-16T12:46:20;9.65;;;2.42;;
52470;SDS011;38382;53.160;7.026;2022-10-16T12:48:48;8.85;;;1.98;;
52470;SDS011;38382;53.160;7.026;2022-10-16T12:51:23;8.05;;;2.05;;
52470;SDS011;38382;53.160;7.026;2022-10-16T12:54:14;8.80;;;2.10;;
52470;SDS011;38382;53.160;7.026;2022-10-16T13:18:16;7.53;;;1.88;;
52470;SDS011;38382;53.160;7.026;2022-10-16T13:29:13;7.90;;;1.98;;
52470;SDS011;38382;53.160;7.026;2022-10-16T13:31:39;11.23;;;1.88;;
52470;SDS011;38382;53.160;7.026;2022-10-16T13:34:10;6.68;;;2.10;;
52470;SDS011;38382;53.160;7.026;2022-10-16T13:36:45;6.03;;;1.95;;
52470;SDS011;38382;53.160;7.026;2022-10-16T13:39:28;9.23;;;1.98;;
52470;SDS011;38382;53.160;7.026;2022-10-16T13:42:00;9.27;;;1.95;;
52470;SDS011;38382;53.160;7.026;2022-10-16T13:44:35;5.03;;;1.75;;
52470;SDS011;38382;53.160;7.026;2022-10-16T13:47:10;7.07;;;2.00;;
52470;SDS011;38382;53.160;7.026;2022-10-16T13:52:28;5.93;;;1.63;;
52470;SDS011;38382;53.160;7.026;2022-10-16T13:54:54;7.00;;;1.80;;
52470;SDS011;38382;53.160;7.026;2022-10-16T13:57:21;6.68;;;1.83;;
52470;SDS011;38382;53.160;7.026;2022-10-16T13:59:50;10.07;;;2.30;;
52470;SDS011;38382;53.160;7.026;2022-10-16T14:02:35;8.13;;;1.90;;
52470;SDS011;38382;53.160;7.026;2022-10-16T14:05:04;9.15;;;2.08;;
52470;SDS011;38382;53.160;7.026;2022-10-16T14:07:35;13.27;;;2.70;;
52470;SDS011;38382;53.160;7.026;2022-10-16T14:10:04;7.65;;;1.70;;
52470;SDS011;38382;53.160;7.026;2022-10-16T14:12:32;9.00;;;2.03;;
52470;SDS011;38382;53.160;7.026;2022-10-16T14:14:58;10.27;;;2.22;;
52470;SDS011;38382;53.160;7.026;2022-10-16T14:19:59;6.43;;;1.60;;
52470;SDS011;38382;53.160;7.026;2022-10-16T14:22:28;6.57;;;1.60;;
52470;SDS011;38382;53.160;7.026;2022-10-16T14:24:58;9.68;;;1.83;;
52470;SDS011;38382;53.160;7.026;2022-10-16T14:27:34;8.40;;;1.73;;
52470;SDS011;38382;53.160;7.026;2022-10-16T14:30:19;6.97;;;1.63;;
52470;SDS011;38382;53.160;7.026;2022-10-16T14:32:57;7.88;;;1.85;;
52470;SDS011;38382;53.160;7.026;2022-10-16T14:38:01;11.43;;;1.80;;
52470;SDS011;38382;53.160;7.026;2022-10-16T14:40:29;8.23;;;1.60;;
52470;SDS011;38382;53.160;7.026;2022-10-16T14:42:57;7.95;;;1.77;;
52470;SDS011;38382;53.160;7.026;2022-10-16T14:45:27;7.60;;;1.90;;
52470;SDS011;38382;53.160;7.026;2022-10-16T14:47:56;7.95;;;1.73;;
52470;SDS011;38382;53.160;7.026;2022-10-16T14:50:23;8.15;;;1.90;;
52470;SDS011;38382;53.160;7.026;2022-10-16T14:52:49;8.68;;;1.52;;
52470;SDS011;38382;53.160;7.026;2022-10-16T14:55:16;8.75;;;1.73;;
52470;SDS011;38382;53.160;7.026;2022-10-16T14:57:42;5.35;;;1.70;;
52470;SDS011;38382;53.160;7.026;2022-10-16T15:00:18;9.38;;;1.70;;
52470;SDS011;38382;53.160;7.026;2022-10-16T15:02:47;6.78;;;1.80;;
52470;SDS011;38382;53.160;7.026;2022-10-16T15:05:24;7.50;;;1.85;;
52470;SDS011;38382;53.160;7.026;2022-10-16T15:07:52;8.65;;;1.85;;
52470;SDS011;38382;53.160;7.026;2022-10-16T15:10:20;10.95;;;2.10;;
52470;SDS011;38382;53.160;7.026;2022-10-16T15:12:47;8.98;;;1.60;;
52470;SDS011;38382;53.160;7.026;2022-10-16T15:17:52;7.35;;;1.80;;
52470;SDS011;38382;53.160;7.026;2022-10-16T15:20:21;8.93;;;1.90;;
52470;SDS011;38382;53.160;7.026;2022-10-16T15:22:50;8.70;;;2.28;;
52470;SDS011;38382;53.160;7.026;2022-10-16T15:27:50;9.55;;;1.92;;
52470;SDS011;38382;53.160;7.026;2022-10-16T15:30:16;11.35;;;2.30;;
52470;SDS011;38382;53.160;7.026;2022-10-16T15:32:42;9.32;;;2.00;;
52470;SDS011;38382;53.160;7.026;2022-10-16T15:35:08;8.88;;;2.45;;
52470;SDS011;38382;53.160;7.026;2022-10-16T15:37:34;8.05;;;1.92;;
52470;SDS011;38382;53.160;7.026;2022-10-16T15:40:00;8.85;;;1.95;;
52470;SDS011;38382;53.160;7.026;2022-10-16T15:42:26;12.65;;;2.45;;
52470;SDS011;38382;53.160;7.026;2022-10-16T15:44:51;11.45;;;2.50;;
52470;SDS011;38382;53.160;7.026;2022-10-16T15:47:17;8.75;;;2.10;;
52470;SDS011;38382;53.160;7.026;2022-10-16T15:49:43;11.13;;;2.95;;
52470;SDS011;38382;53.160;7.026;2022-10-16T15:52:09;10.88;;;2.88;;
52470;SDS011;38382;53.160;7.026;2022-10-16T15:54:34;7.20;;;2.55;;
52470;SDS011;38382;53.160;7.026;2022-10-16T15:57:00;13.20;;;3.25;;
52470;SDS011;38382;53.160;7.026;2022-10-16T15:59:26;14.00;;;3.65;;
52470;SDS011;38382;53.160;7.026;2022-10-16T16:01:51;15.90;;;3.38;;
52470;SDS011;38382;53.160;7.026;2022-10-16T16:04:17;7.78;;;2.72;;
52470;SDS011;38382;53.160;7.026;2022-10-16T16:06:43;10.98;;;2.90;;
52470;SDS011;38382;53.160;7.026;2022-10-16T16:09:13;9.43;;;2.63;;
52470;SDS011;38382;53.160;7.026;2022-10-16T16:11:39;12.35;;;2.55;;
52470;SDS011;38382;53.160;7.026;2022-10-16T16:14:05;12.85;;;2.47;;
52470;SDS011;38382;53.160;7.026;2022-10-16T16:16:32;9.52;;;2.90;;
52470;SDS011;38382;53.160;7.026;2022-10-16T16:19:02;13.00;;;2.90;;
52470;SDS011;38382;53.160;7.026;2022-10-16T16:21:29;11.80;;;3.33;;
52470;SDS011;38382;53.160;7.026;2022-10-16T16:23:55;11.20;;;3.72;;
52470;SDS011;38382;53.160;7.026;2022-10-16T16:26:28;12.77;;;4.03;;
52470;SDS011;38382;53.160;7.026;2022-10-16T16:28:57;11.30;;;3.75;;
52470;SDS011;38382;53.160;7.026;2022-10-16T16:31:24;12.73;;;4.22;;
52470;SDS011;38382;53.160;7.026;2022-10-16T16:33:51;15.52;;;5.35;;
52470;SDS011;38382;53.160;7.026;2022-10-16T16:36:17;15.65;;;5.93;;
52470;SDS011;38382;53.160;7.026;2022-10-16T16:38:43;14.43;;;5.47;;
52470;SDS011;38382;53.160;7.026;2022-10-16T16:41:13;13.60;;;6.18;;
52470;SDS011;38382;53.160;7.026;2022-10-16T16:43:41;14.37;;;5.80;;
52470;SDS011;38382;53.160;7.026;2022-10-16T16:46:07;12.98;;;5.47;;
52470;SDS011;38382;53.160;7.026;2022-10-16T16:48:33;18.10;;;5.95;;
52470;SDS011;38382;53.160;7.026;2022-10-16T16:51:06;16.10;;;5.40;;
52470;SDS011;38382;53.160;7.026;2022-10-16T16:53:36;15.60;;;5.72;;
52470;SDS011;38382;53.160;7.026;2022-10-16T16:56:02;14.15;;;4.75;;
52470;SDS011;38382;53.160;7.026;2022-10-16T16:58:29;10.93;;;4.53;;
52470;SDS011;38382;53.160;7.026;2022-10-16T17:00:55;14.13;;;4.72;;
52470;SDS011;38382;53.160;7.026;2022-10-16T17:03:21;13.95;;;4.70;;